Terminal Aerodrome Forecast
Issued by NWS

Home | Current Version | Previous Version | Text Only | Print | Product List | Glossary On
Versions: 1 2 3 4 5 6 7 8 9 10 11 12 13 14 15 16 17 18 19 20 21
000
FTUS43 KDVN 231800 AAA
TAFBRL
TAF AMD
KBRL 231858Z 2319/2418 08007KT P6SM BKN015 BKN150
     FM232100 13007KT P6SM SCT015 SCT150
     FM240700 14005KT 4SM BR SCT120
      TEMPO 2409/2413 1SM BR SCT006
     FM241500 18008KT 6SM BR BKN250=

USA.gov is the U.S. government's official web portal to all federal, state and local government web resources and services.